createdAt,value
2023-03-23T15:58:32.073Z,2.30
2023-03-23T16:01:02.054Z,2.00
2023-03-23T16:03:41.193Z,2.10
2023-03-23T16:06:25.396Z,2.08
2023-03-23T16:08:55.368Z,2.20
2023-03-23T16:11:25.631Z,1.70
2023-03-23T16:13:53.766Z,2.00
2023-03-23T16:16:23.838Z,1.85
2023-03-23T16:18:51.431Z,2.12
2023-03-23T16:21:19.343Z,1.90
2023-03-23T16:23:46.982Z,1.80
2023-03-23T16:26:15.543Z,2.07
2023-03-23T16:28:43.872Z,2.72
2023-03-23T16:31:18.062Z,2.72
2023-03-23T16:33:45.878Z,3.20
2023-03-23T16:36:13.869Z,3.30
2023-03-23T16:38:49.656Z,2.60
2023-03-23T16:41:19.831Z,2.55
2023-03-23T16:43:47.371Z,2.20
2023-03-23T16:46:15.077Z,2.20
2023-03-23T16:48:43.098Z,2.45
2023-03-23T16:51:10.666Z,2.70
2023-03-23T16:53:38.220Z,2.67
2023-03-23T16:56:05.972Z,2.30
2023-03-23T16:58:33.448Z,2.35
2023-03-23T17:01:01.287Z,2.70
2023-03-23T17:03:29.462Z,4.07
2023-03-23T17:05:59.782Z,4.07
2023-03-23T17:08:27.576Z,2.97
2023-03-23T17:10:59.016Z,2.92
2023-03-23T17:13:27.966Z,3.35
2023-03-23T17:15:57.289Z,3.00
2023-03-23T17:18:25.480Z,3.05
2023-03-23T17:20:54.439Z,3.12
2023-03-23T17:23:22.512Z,3.40
2023-03-23T17:25:50.487Z,2.87
2023-03-23T17:28:19.719Z,2.83
2023-03-23T17:30:49.513Z,3.40
2023-03-23T17:33:17.082Z,3.30
2023-03-23T17:35:46.848Z,3.20
2023-03-23T17:38:15.101Z,3.12
2023-03-23T17:40:42.657Z,2.70
2023-03-23T17:43:10.491Z,2.80
2023-03-23T17:45:38.335Z,2.70
2023-03-23T17:48:07.870Z,3.22
2023-03-23T17:50:35.981Z,3.30
2023-03-23T17:53:03.794Z,2.90
2023-03-23T17:55:31.740Z,2.72
2023-03-23T17:57:59.604Z,2.95
2023-03-23T18:00:27.450Z,3.10
2023-03-23T18:02:56.534Z,3.33
2023-03-23T18:05:24.635Z,2.73
2023-03-23T18:07:52.209Z,2.85
2023-03-23T18:10:20.564Z,2.53
2023-03-23T18:12:50.086Z,2.60
2023-03-23T18:15:17.799Z,2.80
2023-03-23T18:17:48.229Z,3.20
2023-03-23T18:20:16.592Z,3.00
2023-03-23T18:22:44.057Z,2.45
2023-03-23T18:25:11.857Z,2.72
2023-03-23T18:27:39.386Z,2.85
2023-03-23T18:30:08.766Z,2.67
2023-03-23T18:32:39.884Z,2.97
2023-03-23T18:35:09.918Z,2.58
2023-03-23T18:37:41.715Z,2.30
2023-03-23T18:40:14.375Z,2.92
2023-03-23T18:42:44.630Z,2.80
2023-03-23T18:45:13.026Z,3.20
2023-03-23T18:47:40.579Z,3.20
2023-03-23T18:50:10.065Z,3.37
2023-03-23T18:52:37.885Z,3.55
2023-03-23T18:55:06.017Z,4.17
2023-03-23T18:57:33.991Z,4.50
2023-03-23T19:00:01.648Z,4.30
2023-03-23T19:02:29.346Z,5.05
2023-03-23T19:04:57.458Z,4.50
2023-03-23T19:07:24.916Z,4.83
2023-03-23T19:09:52.605Z,4.75
2023-03-23T19:12:21.187Z,4.37
2023-03-23T19:14:48.814Z,4.55
2023-03-23T19:17:16.558Z,4.85
2023-03-23T19:19:45.006Z,4.77
2023-03-23T19:22:13.477Z,5.32
2023-03-23T19:24:41.127Z,4.40
2023-03-23T19:27:09.434Z,4.60
2023-03-23T19:29:37.030Z,4.30
2023-03-23T19:32:04.765Z,4.83
2023-03-23T19:34:32.700Z,3.83
2023-03-23T19:37:05.499Z,4.18
2023-03-23T19:39:34.621Z,3.60
2023-03-23T19:42:04.269Z,4.28
2023-03-23T19:44:32.989Z,3.83
2023-03-23T19:47:01.218Z,4.40
2023-03-23T19:49:29.001Z,4.37
2023-03-23T19:52:06.095Z,4.00
2023-03-23T19:54:39.405Z,3.80
2023-03-23T19:57:08.047Z,4.20
2023-03-23T19:59:38.094Z,4.70
2023-03-23T20:02:07.097Z,4.87
2023-03-23T20:04:35.404Z,5.00
2023-03-23T20:07:05.883Z,6.18
2023-03-23T20:09:35.593Z,5.93
2023-03-23T20:12:05.033Z,6.20
2023-03-23T20:14:33.946Z,6.60
2023-03-23T20:17:02.059Z,6.45
2023-03-23T20:19:30.134Z,6.35
2023-03-23T20:21:57.881Z,6.27
2023-03-23T20:24:26.119Z,6.53
2023-03-23T20:26:53.853Z,6.65
2023-03-23T20:29:21.603Z,6.80
2023-03-23T20:31:51.252Z,6.93
2023-03-23T20:34:29.191Z,6.50
2023-03-23T20:36:58.987Z,6.85
2023-03-23T20:39:30.490Z,6.65
2023-03-23T20:42:00.592Z,7.07
2023-03-23T20:44:31.154Z,7.18
2023-03-23T20:46:59.696Z,6.77
2023-03-23T20:49:27.714Z,6.55
2023-03-23T20:51:55.505Z,5.97
2023-03-23T20:54:24.521Z,6.12
2023-03-23T20:56:53.319Z,5.90
2023-03-23T20:59:23.356Z,6.77
2023-03-23T21:01:51.588Z,6.32
2023-03-23T21:04:22.042Z,6.60
2023-03-23T21:06:50.271Z,6.28
2023-03-23T21:09:18.012Z,6.45
2023-03-23T21:11:46.437Z,6.47
2023-03-23T21:14:14.526Z,6.57
2023-03-23T21:16:42.887Z,7.60
2023-03-23T21:19:12.242Z,7.18
2023-03-23T21:21:56.607Z,7.50
2023-03-23T21:24:28.159Z,7.20
2023-03-23T21:26:59.444Z,7.93
2023-03-23T21:29:28.563Z,7.47
2023-03-23T21:34:28.058Z,7.60
2023-03-23T21:36:55.941Z,7.43
2023-03-23T21:39:23.889Z,6.53
2023-03-23T21:41:51.460Z,6.00
2023-03-23T21:44:19.217Z,6.62
2023-03-23T21:46:46.766Z,6.53
2023-03-23T21:49:14.705Z,6.10
2023-03-23T21:51:43.350Z,6.53
2023-03-23T21:54:11.778Z,5.68
2023-03-23T21:56:39.763Z,5.57
2023-03-23T21:59:07.877Z,5.50
2023-03-23T22:01:37.134Z,5.63
2023-03-23T22:04:06.967Z,5.78
2023-03-23T22:06:35.315Z,5.50
2023-03-23T22:09:05.403Z,5.53
2023-03-23T22:11:33.670Z,5.68
2023-03-23T22:14:01.874Z,5.57
2023-03-23T22:16:29.701Z,5.30
2023-03-23T22:19:00.414Z,5.25
2023-03-23T22:21:28.476Z,6.18
2023-03-23T22:23:58.426Z,5.68
2023-03-23T22:26:27.677Z,5.00
2023-03-23T22:28:56.281Z,5.07
2023-03-23T22:31:27.420Z,5.55
2023-03-23T22:33:56.511Z,5.37
2023-03-23T22:36:25.520Z,5.25
2023-03-23T22:38:55.035Z,5.80
2023-03-23T22:41:32.194Z,4.87
2023-03-23T22:44:00.204Z,4.95
2023-03-23T22:46:28.231Z,5.47
2023-03-23T22:48:56.069Z,5.37
2023-03-23T22:51:24.116Z,5.37
2023-03-23T22:53:52.203Z,5.37
2023-03-23T22:56:20.002Z,4.80
2023-03-23T22:58:47.749Z,5.12
2023-03-23T23:01:18.155Z,4.87
2023-03-23T23:03:46.556Z,4.50
2023-03-23T23:06:16.640Z,5.50
2023-03-23T23:08:45.631Z,4.90
2023-03-23T23:11:16.416Z,4.87
2023-03-23T23:13:44.411Z,5.12
2023-03-23T23:16:17.383Z,4.73
2023-03-23T23:18:47.619Z,4.82
2023-03-23T23:21:18.178Z,4.70
2023-03-23T23:23:46.623Z,4.72
2023-03-23T23:26:15.944Z,4.72
2023-03-23T23:28:44.116Z,4.77
2023-03-23T23:31:33.729Z,4.55
2023-03-23T23:34:02.487Z,4.72
2023-03-23T23:36:32.370Z,5.12
2023-03-23T23:39:01.164Z,5.03
2023-03-23T23:41:30.433Z,5.10
2023-03-23T23:43:59.481Z,5.35
2023-03-23T23:46:28.687Z,4.80
2023-03-23T23:48:57.386Z,4.30
2023-03-23T23:51:27.385Z,4.72
2023-03-23T23:53:58.653Z,4.30
2023-03-23T23:56:27.858Z,5.00
2023-03-23T23:58:55.675Z,4.97
